SKBQ/BAQ METAR and TAF weather

Enter ICAO airport designator
Station Type Date Time Source
SKBQ METAR 2021/01/17 19:00 UTC NOAA

SKBQ 171900Z 03011KT 9999 FEW015 31/23 Q1008 NOSIG RMK A2977


Station Type Date Time Source
SKBQ Decoded METAR 2021/01/17 19:00 UTC NOAA

Barranquilla / Ernestocortissoz, Colombia (SKBQ) 10-53N 074-47W 30M
Jan 17, 2021 - 02:00 PM EST / 2021.01.17 1900 UTC
Wind: from the NNE (030 degrees) at 13 MPH (11 KT):0
Visibility: greater than 7 mile(s):0
Sky conditions: mostly clear
Temperature: 87 F (31 C)
Heat index: 93.9 F (34.4 C):1
Dew Point: 73 F (23 C)
Relative Humidity: 62%
Pressure (altimeter): 29.77 in. Hg (1008 hPa)
ob: SKBQ 171900Z 03011KT 9999 FEW015 31/23 Q1008 NOSIG RMK A2977
cycle: 19

Station Type Date Time Source
SKBQ TAF 2021/01/17 18:37 UTC NOAA

TAF SKBQ 171630Z 1718/1818 01014KT CAVOK
BECMG 1806/1808 02003KT
TEMPO 1811/1813 4000 BR BKN010 TX32/1716Z TN23/1810Z

Example: see airport list